Time,TemperatureF,DewpointF,PressureIn,WindDirection,WindDirectionDegrees,WindSpeedMPH,WindSpeedGustMPH,Humidity,HourlyPrecipIn,Conditions,Clouds,dailyrainin,SoftwareType,DateUTC
2013-01-24 00:10:00,44.6,42.7,29.50,NNW,338,0.0,3.0,93,0.02,RA,,0.54,WeatherDisplay:10.37,2013-01-23 23:10:00,
2013-01-24 00:20:00,44.6,43.0,29.50,East,90,1.0,4.0,94,0.01,RA,,0.55,WeatherDisplay:10.37,2013-01-23 23:20:00,
2013-01-24 00:40:00,44.4,42.5,29.50,East,90,1.0,5.0,93,0.00,CLR,,0.55,WeatherDisplay:10.37,2013-01-23 23:40:00,
2013-01-24 00:50:00,44.2,42.3,29.50,East,90,0.0,3.0,93,0.01,RA,,0.56,WeatherDisplay:10.37,2013-01-23 23:50:00,
2013-01-24 01:10:00,44.1,42.5,29.50,East,90,0.0,2.0,94,0.00,CLR,,0.56,WeatherDisplay:10.37,2013-01-24 00:10:00,
2013-01-24 01:20:00,44.2,42.6,29.50,East,90,0.0,3.0,94,0.00,CLR,,0.56,WeatherDisplay:10.37,2013-01-24 00:20:00,
2013-01-24 01:30:00,44.4,42.8,29.50,East,90,0.0,2.0,94,0.00,CLR,,0.56,WeatherDisplay:10.37,2013-01-24 00:30:00,
2013-01-24 01:40:00,44.7,43.1,29.51,East,90,0.0,2.0,94,0.01,RA,,0.57,WeatherDisplay:10.37,2013-01-24 00:40:00,
2013-01-24 02:00:00,44.8,43.2,29.50,East,90,0.0,5.0,94,0.00,CLR,,0.58,WeatherDisplay:10.37,2013-01-24 01:00:00,
2013-01-24 02:20:00,44.9,43.0,29.50,East,90,0.0,3.0,93,0.00,CLR,,0.58,WeatherDisplay:10.37,2013-01-24 01:20:00,
2013-01-24 02:30:00,45.0,43.1,29.50,East,90,0.0,1.0,93,0.00,CLR,,0.58,WeatherDisplay:10.37,2013-01-24 01:30:00,
2013-01-24 02:40:00,45.2,43.3,29.50,East,90,0.0,1.0,93,0.00,CLR,,0.58,WeatherDisplay:10.37,2013-01-24 01:40:00,
2013-01-24 02:50:00,45.5,43.6,29.50,East,90,0.0,1.0,93,0.00,CLR,,0.58,WeatherDisplay:10.37,2013-01-24 01:50:00,
2013-01-24 03:00:00,45.5,43.3,29.50,East,90,0.0,1.0,92,0.00,CLR,,0.58,WeatherDisplay:10.37,2013-01-24 02:00:00,
2013-01-24 03:10:00,45.6,43.4,29.50,East,90,0.0,2.0,92,0.00,CLR,,0.58,WeatherDisplay:10.37,2013-01-24 02:10:00,
2013-01-24 03:20:00,45.5,43.3,29.54,NW,324,3.0,6.0,92,0.02,RA,,0.17,WeatherDisplay:10.37,2013-01-24 02:20:00,
2013-01-24 03:30:00,45.1,43.2,29.54,WNW,297,1.0,5.0,93,0.15,RA,,0.31,WeatherDisplay:10.37,2013-01-24 02:30:00,
2013-01-24 03:40:00,44.9,43.0,29.53,East,96,0.0,5.0,93,0.01,RA,,0.32,WeatherDisplay:10.37,2013-01-24 02:40:00,
2013-01-24 03:50:00,45.2,43.6,29.53,SE,125,0.0,1.0,94,0.00,CLR,,0.32,WeatherDisplay:10.37,2013-01-24 02:50:00,
2013-01-24 04:00:00,45.1,43.2,29.53,NE,41,0.0,3.0,93,0.01,RA,,0.33,WeatherDisplay:10.37,2013-01-24 03:00:00,
2013-01-24 04:10:00,45.1,43.2,29.53,NE,41,0.0,2.0,93,0.00,CLR,,0.33,WeatherDisplay:10.37,2013-01-24 03:10:00,
2013-01-24 04:20:00,45.1,43.2,29.52,NE,41,0.0,2.0,93,0.01,RA,,0.34,WeatherDisplay:10.37,2013-01-24 03:20:00,
2013-01-24 04:30:00,45.2,43.6,29.52,NE,36,0.0,3.0,94,0.00,CLR,,0.34,WeatherDisplay:10.37,2013-01-24 03:30:00,
2013-01-24 04:40:00,45.2,43.6,29.52,NE,47,0.0,3.0,94,0.00,CLR,,0.34,WeatherDisplay:10.37,2013-01-24 03:40:00,
2013-01-24 04:50:00,45.1,43.5,29.52,NE,47,0.0,3.0,94,0.00,CLR,,0.34,WeatherDisplay:10.37,2013-01-24 03:50:00,
2013-01-24 05:00:00,44.9,43.3,29.52,NE,39,0.0,2.0,94,0.02,RA,,0.35,WeatherDisplay:10.37,2013-01-24 04:00:00,
2013-01-24 05:10:00,45.0,43.7,29.52,NNW,338,2.0,7.0,95,0.02,RA,,0.37,WeatherDisplay:10.37,2013-01-24 04:10:00,
2013-01-24 05:20:00,45.0,43.3,29.52,NNW,330,2.0,6.0,94,0.02,RA,,0.39,WeatherDisplay:10.37,2013-01-24 04:20:00,
2013-01-24 05:40:00,48.6,44.6,29.47,NE,45,0.0,2.0,86,0.00,CLR,,0.58,WeatherDisplay:10.37,2013-01-24 04:40:00,
2013-01-24 05:50:00,48.5,44.5,29.47,NE,45,0.0,3.0,86,0.00,CLR,,0.58,WeatherDisplay:10.37,2013-01-24 04:50:00,
2013-01-24 06:00:00,48.5,44.5,29.46,NE,45,0.0,1.0,86,0.00,CLR,,0.58,WeatherDisplay:10.37,2013-01-24 05:00:00,
2013-01-24 06:10:00,48.5,44.5,29.46,NE,45,0.0,1.0,86,0.00,CLR,,0.58,WeatherDisplay:10.37,2013-01-24 05:10:00,
2013-01-24 06:20:00,48.5,44.8,29.45,NE,45,0.0,2.0,87,0.00,CLR,,0.58,WeatherDisplay:10.37,2013-01-24 05:20:00,
2013-01-24 06:30:00,48.4,44.4,29.45,NE,45,0.0,0.0,86,0.00,CLR,,0.58,WeatherDisplay:10.37,2013-01-24 05:30:00,
2013-01-24 06:40:00,48.3,44.3,29.45,NE,45,0.0,1.0,86,0.00,CLR,,0.58,WeatherDisplay:10.37,2013-01-24 05:40:00,
2013-01-24 06:50:00,48.3,44.3,29.45,NE,45,0.0,0.0,86,0.01,RA,,0.59,WeatherDisplay:10.37,2013-01-24 05:50:00,
2013-01-24 07:00:00,48.3,44.3,29.44,NE,45,0.0,2.0,86,0.01,RA,,0.60,WeatherDisplay:10.37,2013-01-24 06:00:00,
2013-01-24 07:10:00,48.3,44.6,29.44,NE,45,0.0,3.0,87,0.00,CLR,,0.60,WeatherDisplay:10.37,2013-01-24 06:10:00,
2013-01-24 07:20:00,48.4,44.7,29.44,NNW,338,1.0,3.0,87,0.00,CLR,,0.60,WeatherDisplay:10.37,2013-01-24 06:20:00,
2013-01-24 07:30:00,48.4,44.7,29.44,NW,315,2.0,4.0,87,0.00,CLR,,0.60,WeatherDisplay:10.37,2013-01-24 06:30:00,
2013-01-24 07:40:00,48.3,44.6,29.44,NW,315,1.0,4.0,87,0.00,CLR,,0.60,WeatherDisplay:10.37,2013-01-24 06:40:00,
2013-01-24 07:50:00,48.4,44.7,29.44,NW,315,1.0,4.0,87,0.00,CLR,,0.60,WeatherDisplay:10.37,2013-01-24 06:50:00,
2013-01-24 08:00:00,48.5,44.5,29.44,WNW,292,1.0,3.0,86,0.00,CLR,,0.60,WeatherDisplay:10.37,2013-01-24 07:00:00,
2013-01-24 08:10:00,48.6,44.6,29.43,WNW,292,0.0,3.0,86,0.00,CLR,,0.60,WeatherDisplay:10.37,2013-01-24 07:10:00,
2013-01-24 08:20:00,49.1,45.1,29.44,WNW,292,2.0,6.0,86,0.00,CLR,,0.60,WeatherDisplay:10.37,2013-01-24 07:20:00,
2013-01-24 08:30:00,49.6,45.6,29.44,West,270,2.0,6.0,86,0.00,CLR,,0.60,WeatherDisplay:10.37,2013-01-24 07:30:00,
2013-01-24 08:40:00,49.6,45.0,29.44,West,270,1.0,4.0,84,0.00,CLR,,0.60,WeatherDisplay:10.37,2013-01-24 07:40:00,
2013-01-24 08:50:00,49.6,45.3,29.44,West,270,0.0,3.0,85,0.00,CLR,,0.60,WeatherDisplay:10.37,2013-01-24 07:50:00,
2013-01-24 09:00:00,50.2,45.9,29.44,West,270,0.0,1.0,85,0.00,CLR,,0.60,WeatherDisplay:10.37,2013-01-24 08:00:00,
2013-01-24 09:10:00,50.7,46.0,29.45,West,270,0.0,2.0,84,0.00,CLR,,0.60,WeatherDisplay:10.37,2013-01-24 08:10:00,
2013-01-24 09:20:00,50.5,45.2,29.45,West,270,1.0,5.0,82,0.00,CLR,,0.60,WeatherDisplay:10.37,2013-01-24 08:20:00,
2013-01-24 09:30:00,50.1,45.1,29.45,WSW,248,1.0,4.0,83,0.00,CLR,,0.60,WeatherDisplay:10.37,2013-01-24 08:30:00,
2013-01-24 09:40:00,50.5,45.2,29.45,NNW,338,1.0,3.0,82,0.00,CLR,,0.60,WeatherDisplay:10.37,2013-01-24 08:40:00,
2013-01-24 09:50:00,50.7,45.1,29.45,NNW,338,0.0,4.0,81,0.00,CLR,,0.60,WeatherDisplay:10.37,2013-01-24 08:50:00,
2013-01-24 10:00:00,51.3,45.3,29.45,NNW,338,0.0,4.0,80,0.00,CLR,,0.60,WeatherDisplay:10.37,2013-01-24 09:00:00,
2013-01-24 10:10:00,51.7,45.7,29.45,SSW,202,1.0,6.0,80,0.00,CLR,,0.60,WeatherDisplay:10.37,2013-01-24 09:10:00,
2013-01-24 10:20:00,51.6,46.0,29.46,SSW,202,1.0,5.0,81,0.00,CLR,,0.60,WeatherDisplay:10.37,2013-01-24 09:20:00,
2013-01-24 10:30:00,51.4,45.8,29.45,SW,225,1.0,4.0,81,0.00,CLR,,0.60,WeatherDisplay:10.37,2013-01-24 09:30:00,
2013-01-24 10:40:00,51.0,45.7,29.46,SW,225,1.0,5.0,82,0.00,CLR,,0.60,WeatherDisplay:10.37,2013-01-24 09:40:00,
2013-01-24 10:50:00,50.2,45.2,29.46,SW,225,3.0,7.0,83,0.00,CLR,,0.60,WeatherDisplay:10.37,2013-01-24 09:50:00,
2013-01-24 11:00:00,49.6,45.3,29.47,SW,225,2.0,7.0,85,0.00,CLR,,0.60,WeatherDisplay:10.37,2013-01-24 10:00:00,
2013-01-24 11:10:00,49.3,45.3,29.46,West,270,1.0,6.0,86,0.00,CLR,,0.60,WeatherDisplay:10.37,2013-01-24 10:10:00,
2013-01-24 11:20:00,49.0,45.0,29.46,SSW,202,1.0,4.0,86,0.00,CLR,,0.60,WeatherDisplay:10.37,2013-01-24 10:20:00,
2013-01-24 11:30:00,48.8,45.1,29.47,SSW,202,0.0,4.0,87,0.00,CLR,,0.60,WeatherDisplay:10.37,2013-01-24 10:30:00,
2013-01-24 11:40:00,48.5,45.1,29.48,SSW,202,0.0,3.0,88,0.00,CLR,,0.60,WeatherDisplay:10.37,2013-01-24 10:40:00,
2013-01-24 11:50:00,48.4,45.0,29.49,SSW,202,0.0,1.0,88,0.00,CLR,,0.60,WeatherDisplay:10.37,2013-01-24 10:50:00,
2013-01-24 12:00:00,48.3,45.2,29.49,SSW,202,0.0,2.0,89,0.00,CLR,,0.60,WeatherDisplay:10.37,2013-01-24 11:00:00,
2013-01-24 12:10:00,48.3,44.9,29.50,SSW,202,0.0,4.0,88,0.00,CLR,,0.60,WeatherDisplay:10.37,2013-01-24 11:10:00,
2013-01-24 12:20:00,48.2,44.8,29.50,SSW,202,1.0,4.0,88,0.00,CLR,,0.60,WeatherDisplay:10.37,2013-01-24 11:20:00,
2013-01-24 12:30:00,47.9,44.5,29.50,SSW,202,0.0,3.0,88,0.00,CLR,,0.60,WeatherDisplay:10.37,2013-01-24 11:30:00,
2013-01-24 12:40:00,47.6,44.2,29.50,SSW,202,0.0,2.0,88,0.00,CLR,,0.60,WeatherDisplay:10.37,2013-01-24 11:40:00,
2013-01-24 12:50:00,47.4,44.0,29.51,SSW,202,1.0,3.0,88,0.00,CLR,,0.60,WeatherDisplay:10.37,2013-01-24 11:50:00,
2013-01-24 13:00:00,47.4,44.0,29.51,SSW,202,0.0,0.0,88,0.00,CLR,,0.60,WeatherDisplay:10.37,2013-01-24 12:00:00,
2013-01-24 13:10:00,47.5,44.4,29.51,SSW,202,0.0,2.0,89,0.00,CLR,,0.60,WeatherDisplay:10.37,2013-01-24 12:10:00,
2013-01-24 13:20:00,47.7,44.6,29.52,SSW,202,0.0,4.0,89,0.00,CLR,,0.60,WeatherDisplay:10.37,2013-01-24 12:20:00,
2013-01-24 13:30:00,47.8,44.4,29.52,SSW,202,0.0,1.0,88,0.00,CLR,,0.60,WeatherDisplay:10.37,2013-01-24 12:30:00,
2013-01-24 13:40:00,47.6,44.2,29.52,SSW,202,0.0,3.0,88,0.00,CLR,,0.60,WeatherDisplay:10.37,2013-01-24 12:40:00,
2013-01-24 13:50:00,47.4,44.0,29.51,West,270,1.0,3.0,88,0.00,CLR,,0.60,WeatherDisplay:10.37,2013-01-24 12:50:00,
2013-01-24 14:00:00,47.2,43.5,29.51,West,270,0.0,1.0,87,0.00,CLR,,0.60,WeatherDisplay:10.37,2013-01-24 13:00:00,
2013-01-24 14:10:00,47.2,43.5,29.52,West,270,0.0,0.0,87,0.00,CLR,,0.60,WeatherDisplay:10.37,2013-01-24 13:10:00,
2013-01-24 14:20:00,47.1,43.7,29.51,West,270,0.0,1.0,88,0.00,CLR,,0.60,WeatherDisplay:10.37,2013-01-24 13:20:00,
2013-01-24 14:30:00,47.3,43.9,29.51,West,270,0.0,3.0,88,0.00,CLR,,0.60,WeatherDisplay:10.37,2013-01-24 13:30:00,
2013-01-24 14:40:00,47.6,43.9,29.51,West,270,0.0,2.0,87,0.00,CLR,,0.60,WeatherDisplay:10.37,2013-01-24 13:40:00,
2013-01-24 14:50:00,47.7,43.7,29.52,West,270,1.0,4.0,86,0.01,RA,,0.61,WeatherDisplay:10.37,2013-01-24 13:50:00,
2013-01-24 15:00:00,47.7,43.7,29.51,West,270,0.0,2.0,86,0.00,CLR,,0.61,WeatherDisplay:10.37,2013-01-24 14:00:00,
2013-01-24 15:10:00,47.7,44.0,29.53,SW,225,1.0,6.0,87,0.02,RA,,0.63,WeatherDisplay:10.37,2013-01-24 14:10:00,
2013-01-24 15:20:00,46.9,42.6,29.51,SSW,202,2.0,9.0,85,0.05,RA,,0.68,WeatherDisplay:10.37,2013-01-24 14:20:00,
2013-01-24 15:30:00,45.9,42.2,29.51,SSW,202,0.0,0.0,87,0.00,CLR,,0.68,WeatherDisplay:10.37,2013-01-24 14:30:00,
2013-01-24 15:40:00,45.7,42.3,29.51,SSW,202,0.0,1.0,88,0.00,CLR,,0.68,WeatherDisplay:10.37,2013-01-24 14:40:00,
2013-01-24 15:50:00,45.7,42.6,29.52,SSW,202,0.0,0.0,89,0.00,CLR,,0.68,WeatherDisplay:10.37,2013-01-24 14:50:00,
2013-01-24 16:00:00,45.9,42.8,29.52,SSW,202,0.0,0.0,89,0.00,CLR,,0.68,WeatherDisplay:10.37,2013-01-24 15:00:00,
2013-01-24 16:10:00,46.2,43.4,29.52,SSW,202,0.0,0.0,90,0.00,CLR,,0.68,WeatherDisplay:10.37,2013-01-24 15:10:00,
2013-01-24 16:20:00,46.6,43.8,29.52,SSW,202,0.0,1.0,90,0.00,CLR,,0.68,WeatherDisplay:10.37,2013-01-24 15:20:00,
2013-01-24 16:30:00,46.8,44.0,29.52,SSW,202,0.0,1.0,90,0.00,CLR,,0.68,WeatherDisplay:10.37,2013-01-24 15:30:00,
2013-01-24 16:40:00,47.0,44.2,29.52,SSW,202,0.0,5.0,90,0.00,CLR,,0.68,WeatherDisplay:10.37,2013-01-24 15:40:00,
2013-01-24 16:50:00,46.9,44.1,29.52,SSW,202,0.0,3.0,90,0.00,CLR,,0.68,WeatherDisplay:10.37,2013-01-24 15:50:00,
2013-01-24 17:00:00,46.8,44.0,29.51,SSW,202,0.0,2.0,90,0.01,RA,,0.69,WeatherDisplay:10.37,2013-01-24 16:00:00,
2013-01-24 17:10:00,46.7,44.2,29.52,SSW,202,0.0,3.0,91,0.02,RA,,0.70,WeatherDisplay:10.37,2013-01-24 16:10:00,
2013-01-24 17:20:00,46.5,43.7,29.52,SSW,202,0.0,4.0,90,0.00,CLR,,0.70,WeatherDisplay:10.37,2013-01-24 16:20:00,
2013-01-24 17:30:00,46.5,43.7,29.51,SSW,202,0.0,1.0,90,0.01,RA,,0.71,WeatherDisplay:10.37,2013-01-24 16:30:00,
2013-01-24 17:40:00,46.6,44.1,29.51,SSW,202,0.0,1.0,91,0.00,CLR,,0.71,WeatherDisplay:10.37,2013-01-24 16:40:00,
2013-01-24 17:50:00,46.7,44.2,29.51,SSW,202,0.0,1.0,91,0.00,CLR,,0.71,WeatherDisplay:10.37,2013-01-24 16:50:00,
2013-01-24 18:00:00,46.7,44.2,29.51,SSW,202,0.0,1.0,91,0.00,CLR,,0.71,WeatherDisplay:10.37,2013-01-24 17:00:00,
2013-01-24 18:10:00,46.7,44.2,29.50,SSW,202,0.0,1.0,91,0.00,RA,,0.00,WeatherDisplay:10.37,2013-01-24 17:10:00,
2013-01-24 18:20:00,46.6,44.1,29.50,SSW,202,0.0,0.0,91,0.00,CLR,,0.00,WeatherDisplay:10.37,2013-01-24 17:20:00,
2013-01-24 18:30:00,46.5,44.0,29.50,SSW,202,0.0,1.0,91,0.00,CLR,,0.00,WeatherDisplay:10.37,2013-01-24 17:30:00,
2013-01-24 18:40:00,46.5,44.3,29.50,SSW,202,0.0,1.0,92,0.00,CLR,,0.00,WeatherDisplay:10.37,2013-01-24 17:40:00,
2013-01-24 18:50:00,46.7,44.5,29.50,North,0,1.0,2.0,92,0.00,CLR,,0.00,WeatherDisplay:10.37,2013-01-24 17:50:00,
2013-01-24 19:00:00,46.7,44.2,29.49,North,0,0.0,1.0,91,0.00,CLR,,0.00,WeatherDisplay:10.37,2013-01-24 18:00:00,
2013-01-24 19:10:00,46.6,44.1,29.49,North,0,0.0,0.0,91,0.00,CLR,,0.00,WeatherDisplay:10.37,2013-01-24 18:10:00,
2013-01-24 19:20:00,46.6,44.1,29.49,North,0,0.0,0.0,91,0.00,CLR,,0.00,WeatherDisplay:10.37,2013-01-24 18:20:00,
2013-01-24 19:30:00,46.6,44.1,29.49,North,0,0.0,0.0,91,0.00,CLR,,0.00,WeatherDisplay:10.37,2013-01-24 18:30:00,
2013-01-24 19:40:00,46.6,44.1,29.48,North,0,0.0,0.0,91,0.00,CLR,,0.00,WeatherDisplay:10.37,2013-01-24 18:40:00,
2013-01-24 19:50:00,46.6,44.1,29.48,North,0,0.0,0.0,91,0.00,CLR,,0.00,WeatherDisplay:10.37,2013-01-24 18:50:00,
2013-01-24 20:00:00,46.7,44.2,29.48,North,0,0.0,1.0,91,0.00,CLR,,0.00,WeatherDisplay:10.37,2013-01-24 19:00:00,
2013-01-24 20:10:00,46.7,44.2,29.48,North,0,0.0,0.0,91,0.00,CLR,,0.00,WeatherDisplay:10.37,2013-01-24 19:10:00,
2013-01-24 20:20:00,46.6,44.1,29.48,North,0,0.0,0.0,91,0.00,CLR,,0.00,WeatherDisplay:10.37,2013-01-24 19:20:00,
2013-01-24 20:30:00,46.4,43.9,29.48,North,0,0.0,0.0,91,0.00,CLR,,0.00,WeatherDisplay:10.37,2013-01-24 19:30:00,
2013-01-24 20:40:00,46.2,43.7,29.47,North,0,0.0,0.0,91,0.00,CLR,,0.00,WeatherDisplay:10.37,2013-01-24 19:40:00,
2013-01-24 20:50:00,46.0,43.5,29.47,North,0,0.0,0.0,91,0.00,CLR,,0.00,WeatherDisplay:10.37,2013-01-24 19:50:00,
2013-01-24 21:00:00,46.1,43.6,29.47,North,0,0.0,1.0,91,0.00,CLR,,0.00,WeatherDisplay:10.37,2013-01-24 20:00:00,
2013-01-24 21:10:00,46.1,43.9,29.47,North,0,0.0,0.0,92,0.00,CLR,,0.00,WeatherDisplay:10.37,2013-01-24 20:10:00,
2013-01-24 21:20:00,46.2,43.7,29.47,North,0,0.0,2.0,91,0.00,CLR,,0.00,WeatherDisplay:10.37,2013-01-24 20:20:00,
2013-01-24 21:30:00,46.0,43.2,29.47,NW,315,1.0,4.0,90,0.00,CLR,,0.00,WeatherDisplay:10.37,2013-01-24 20:30:00,
2013-01-24 21:40:00,45.9,43.1,29.47,WNW,292,1.0,3.0,90,0.00,CLR,,0.00,WeatherDisplay:10.37,2013-01-24 20:40:00,
2013-01-24 21:50:00,45.9,42.8,29.47,WNW,292,0.0,3.0,89,0.00,CLR,,0.00,WeatherDisplay:10.37,2013-01-24 20:50:00,
2013-01-24 22:00:00,45.9,42.8,29.47,WNW,292,0.0,2.0,89,0.00,CLR,,0.00,WeatherDisplay:10.37,2013-01-24 21:00:00,
2013-01-24 22:10:00,45.9,42.5,29.47,NW,315,2.0,5.0,88,0.00,CLR,,0.00,WeatherDisplay:10.37,2013-01-24 21:10:00,
2013-01-24 22:20:00,45.7,42.3,29.47,NW,315,1.0,4.0,88,0.00,CLR,,0.00,WeatherDisplay:10.37,2013-01-24 21:20:00,
2013-01-24 22:30:00,45.5,41.9,29.47,NNW,338,1.0,4.0,87,0.00,CLR,,0.00,WeatherDisplay:10.37,2013-01-24 21:30:00,
2013-01-24 22:40:00,45.4,41.8,29.47,NW,315,1.0,4.0,87,0.00,CLR,,0.00,WeatherDisplay:10.37,2013-01-24 21:40:00,
2013-01-24 22:50:00,45.3,41.4,29.47,NNE,22,1.0,4.0,86,0.00,CLR,,0.00,WeatherDisplay:10.37,2013-01-24 21:50:00,
2013-01-24 23:00:00,45.2,41.3,29.47,NNW,338,1.0,4.0,86,0.00,CLR,,0.00,WeatherDisplay:10.37,2013-01-24 22:00:00,
2013-01-24 23:10:00,45.1,41.2,29.47,NE,45,1.0,8.0,86,0.00,CLR,,0.00,WeatherDisplay:10.37,2013-01-24 22:10:00,
2013-01-24 23:20:00,45.1,41.2,29.47,NE,45,1.0,6.0,86,0.00,CLR,,0.00,WeatherDisplay:10.37,2013-01-24 22:20:00,
2013-01-24 23:30:00,45.0,40.8,29.47,NE,45,2.0,10.0,85,0.00,CLR,,0.00,WeatherDisplay:10.37,2013-01-24 22:30:00,
2013-01-24 23:40:00,45.0,40.8,29.48,NE,45,3.0,10.0,85,0.00,CLR,,0.00,WeatherDisplay:10.37,2013-01-24 22:40:00,
2013-01-24 23:50:00,45.0,40.5,29.48,NE,45,3.0,8.0,84,0.00,CLR,,0.00,WeatherDisplay:10.37,2013-01-24 22:50:00,